sensor_id;sensor_type;location;lat;lon;timestamp;P1;durP1;ratioP1;P2;durP2;ratioP2
80425;SDS011;69766;51.476;5.704;2023-11-18T00:00:43;92.47;;;31.17;;
80425;SDS011;69766;51.476;5.704;2023-11-18T00:03:15;90.93;;;30.70;;
80425;SDS011;69766;51.476;5.704;2023-11-18T00:06:00;81.75;;;29.77;;
80425;SDS011;69766;51.476;5.704;2023-11-18T00:08:26;81.07;;;28.25;;
80425;SDS011;69766;51.476;5.704;2023-11-18T00:10:51;95.38;;;28.73;;
80425;SDS011;69766;51.476;5.704;2023-11-18T00:13:20;81.10;;;28.80;;
80425;SDS011;69766;51.476;5.704;2023-11-18T00:15:46;86.20;;;30.13;;
80425;SDS011;69766;51.476;5.704;2023-11-18T00:18:13;92.78;;;31.50;;
80425;SDS011;69766;51.476;5.704;2023-11-18T00:20:39;77.43;;;27.33;;
80425;SDS011;69766;51.476;5.704;2023-11-18T00:23:05;76.18;;;26.75;;
80425;SDS011;69766;51.476;5.704;2023-11-18T00:25:30;64.15;;;25.15;;
80425;SDS011;69766;51.476;5.704;2023-11-18T00:28:00;67.78;;;26.15;;
80425;SDS011;69766;51.476;5.704;2023-11-18T00:30:26;73.38;;;28.63;;
80425;SDS011;69766;51.476;5.704;2023-11-18T00:32:53;92.90;;;29.77;;
80425;SDS011;69766;51.476;5.704;2023-11-18T00:35:19;94.22;;;31.20;;
80425;SDS011;69766;51.476;5.704;2023-11-18T00:37:45;71.85;;;27.50;;
80425;SDS011;69766;51.476;5.704;2023-11-18T00:40:10;74.97;;;27.45;;
80425;SDS011;69766;51.476;5.704;2023-11-18T00:42:37;88.65;;;28.70;;
80425;SDS011;69766;51.476;5.704;2023-11-18T00:45:03;90.95;;;28.27;;
80425;SDS011;69766;51.476;5.704;2023-11-18T00:47:30;79.28;;;29.63;;
80425;SDS011;69766;51.476;5.704;2023-11-18T00:49:56;86.35;;;29.92;;
80425;SDS011;69766;51.476;5.704;2023-11-18T00:52:22;79.03;;;29.27;;
80425;SDS011;69766;51.476;5.704;2023-11-18T00:54:49;82.75;;;30.73;;
80425;SDS011;69766;51.476;5.704;2023-11-18T00:57:18;79.15;;;27.92;;
80425;SDS011;69766;51.476;5.704;2023-11-18T00:59:44;84.85;;;29.67;;
80425;SDS011;69766;51.476;5.704;2023-11-18T01:02:10;79.32;;;28.52;;
80425;SDS011;69766;51.476;5.704;2023-11-18T01:04:39;76.85;;;27.13;;
80425;SDS011;69766;51.476;5.704;2023-11-18T01:07:05;88.00;;;29.38;;
80425;SDS011;69766;51.476;5.704;2023-11-18T01:09:31;77.95;;;29.50;;
80425;SDS011;69766;51.476;5.704;2023-11-18T01:12:02;71.38;;;26.08;;
80425;SDS011;69766;51.476;5.704;2023-11-18T01:14:29;55.00;;;25.15;;
80425;SDS011;69766;51.476;5.704;2023-11-18T01:16:54;84.72;;;30.65;;
80425;SDS011;69766;51.476;5.704;2023-11-18T01:19:21;104.55;;;31.40;;
80425;SDS011;69766;51.476;5.704;2023-11-18T01:21:47;81.38;;;28.77;;
80425;SDS011;69766;51.476;5.704;2023-11-18T01:24:13;79.65;;;28.23;;
80425;SDS011;69766;51.476;5.704;2023-11-18T01:26:50;73.13;;;27.55;;
80425;SDS011;69766;51.476;5.704;2023-11-18T01:29:16;76.55;;;27.63;;
80425;SDS011;69766;51.476;5.704;2023-11-18T01:31:47;79.85;;;29.23;;
80425;SDS011;69766;51.476;5.704;2023-11-18T01:34:34;69.97;;;26.20;;
80425;SDS011;69766;51.476;5.704;2023-11-18T01:39:33;72.88;;;27.73;;
80425;SDS011;69766;51.476;5.704;2023-11-18T01:41:59;79.55;;;27.27;;
80425;SDS011;69766;51.476;5.704;2023-11-18T01:44:25;69.68;;;26.15;;
80425;SDS011;69766;51.476;5.704;2023-11-18T01:46:53;81.20;;;27.67;;
80425;SDS011;69766;51.476;5.704;2023-11-18T01:49:23;108.60;;;32.50;;
80425;SDS011;69766;51.476;5.704;2023-11-18T01:51:51;112.30;;;34.42;;
80425;SDS011;69766;51.476;5.704;2023-11-18T01:54:17;90.30;;;30.55;;
80425;SDS011;69766;51.476;5.704;2023-11-18T01:56:45;85.00;;;29.65;;
80425;SDS011;69766;51.476;5.704;2023-11-18T01:59:28;88.55;;;29.95;;
80425;SDS011;69766;51.476;5.704;2023-11-18T02:01:55;79.15;;;27.70;;
80425;SDS011;69766;51.476;5.704;2023-11-18T02:04:24;81.60;;;28.45;;
80425;SDS011;69766;51.476;5.704;2023-11-18T02:06:50;95.10;;;32.08;;
80425;SDS011;69766;51.476;5.704;2023-11-18T02:09:21;94.13;;;31.40;;
80425;SDS011;69766;51.476;5.704;2023-11-18T02:15:08;81.40;;;29.92;;
80425;SDS011;69766;51.476;5.704;2023-11-18T02:17:53;89.70;;;29.50;;
80425;SDS011;69766;51.476;5.704;2023-11-18T02:20:39;82.35;;;29.55;;
80425;SDS011;69766;51.476;5.704;2023-11-18T02:23:05;82.40;;;30.63;;
80425;SDS011;69766;51.476;5.704;2023-11-18T02:25:42;99.60;;;31.55;;
80425;SDS011;69766;51.476;5.704;2023-11-18T02:28:12;90.32;;;31.83;;
80425;SDS011;69766;51.476;5.704;2023-11-18T02:30:39;84.32;;;31.52;;
80425;SDS011;69766;51.476;5.704;2023-11-18T02:33:15;89.10;;;32.45;;
80425;SDS011;69766;51.476;5.704;2023-11-18T02:36:02;77.85;;;29.15;;
80425;SDS011;69766;51.476;5.704;2023-11-18T02:39:01;76.10;;;29.08;;
80425;SDS011;69766;51.476;5.704;2023-11-18T02:41:35;66.95;;;27.73;;
80425;SDS011;69766;51.476;5.704;2023-11-18T02:44:04;72.88;;;28.52;;
80425;SDS011;69766;51.476;5.704;2023-11-18T02:46:37;73.10;;;29.10;;
80425;SDS011;69766;51.476;5.704;2023-11-18T02:49:05;73.55;;;28.67;;
80425;SDS011;69766;51.476;5.704;2023-11-18T02:51:31;72.93;;;28.95;;
80425;SDS011;69766;51.476;5.704;2023-11-18T02:54:01;77.90;;;30.23;;
80425;SDS011;69766;51.476;5.704;2023-11-18T02:56:27;69.75;;;28.50;;
80425;SDS011;69766;51.476;5.704;2023-11-18T02:58:53;81.47;;;29.40;;
80425;SDS011;69766;51.476;5.704;2023-11-18T03:01:19;65.82;;;28.13;;
80425;SDS011;69766;51.476;5.704;2023-11-18T03:03:45;73.82;;;30.15;;
80425;SDS011;69766;51.476;5.704;2023-11-18T03:06:12;69.97;;;28.83;;
80425;SDS011;69766;51.476;5.704;2023-11-18T03:08:40;78.18;;;29.65;;
80425;SDS011;69766;51.476;5.704;2023-11-18T03:11:06;69.63;;;28.98;;
80425;SDS011;69766;51.476;5.704;2023-11-18T03:13:34;75.63;;;29.52;;
80425;SDS011;69766;51.476;5.704;2023-11-18T03:16:01;68.78;;;29.55;;
80425;SDS011;69766;51.476;5.704;2023-11-18T03:18:27;61.97;;;27.30;;
80425;SDS011;69766;51.476;5.704;2023-11-18T03:20:56;71.82;;;29.33;;
80425;SDS011;69766;51.476;5.704;2023-11-18T03:23:22;63.25;;;27.27;;
80425;SDS011;69766;51.476;5.704;2023-11-18T03:25:49;68.15;;;26.85;;
80425;SDS011;69766;51.476;5.704;2023-11-18T03:28:16;70.30;;;27.17;;
80425;SDS011;69766;51.476;5.704;2023-11-18T03:30:43;65.32;;;28.15;;
80425;SDS011;69766;51.476;5.704;2023-11-18T03:33:09;74.30;;;28.92;;
80425;SDS011;69766;51.476;5.704;2023-11-18T03:35:36;76.95;;;29.83;;
80425;SDS011;69766;51.476;5.704;2023-11-18T03:38:02;67.57;;;28.13;;
80425;SDS011;69766;51.476;5.704;2023-11-18T03:40:28;70.70;;;29.58;;
80425;SDS011;69766;51.476;5.704;2023-11-18T03:42:54;68.68;;;27.67;;
80425;SDS011;69766;51.476;5.704;2023-11-18T03:45:25;68.13;;;28.67;;
80425;SDS011;69766;51.476;5.704;2023-11-18T03:48:03;69.28;;;28.33;;
80425;SDS011;69766;51.476;5.704;2023-11-18T03:50:29;61.67;;;28.63;;
80425;SDS011;69766;51.476;5.704;2023-11-18T03:52:55;68.28;;;28.65;;
80425;SDS011;69766;51.476;5.704;2023-11-18T03:55:21;65.10;;;28.13;;
80425;SDS011;69766;51.476;5.704;2023-11-18T03:57:55;70.32;;;28.40;;
80425;SDS011;69766;51.476;5.704;2023-11-18T04:00:24;62.72;;;27.50;;
80425;SDS011;69766;51.476;5.704;2023-11-18T04:02:55;67.35;;;28.45;;
80425;SDS011;69766;51.476;5.704;2023-11-18T04:05:22;68.72;;;29.35;;
80425;SDS011;69766;51.476;5.704;2023-11-18T04:07:48;68.38;;;28.13;;
80425;SDS011;69766;51.476;5.704;2023-11-18T04:10:13;66.07;;;28.55;;
80425;SDS011;69766;51.476;5.704;2023-11-18T04:12:40;66.40;;;29.25;;
80425;SDS011;69766;51.476;5.704;2023-11-18T04:15:11;62.35;;;26.63;;
80425;SDS011;69766;51.476;5.704;2023-11-18T04:17:38;65.55;;;28.08;;
80425;SDS011;69766;51.476;5.704;2023-11-18T04:20:04;63.38;;;27.85;;
80425;SDS011;69766;51.476;5.704;2023-11-18T04:22:42;64.25;;;29.42;;
80425;SDS011;69766;51.476;5.704;2023-11-18T04:25:09;69.25;;;29.73;;
80425;SDS011;69766;51.476;5.704;2023-11-18T04:27:36;74.65;;;30.05;;
80425;SDS011;69766;51.476;5.704;2023-11-18T04:30:03;74.55;;;29.88;;
80425;SDS011;69766;51.476;5.704;2023-11-18T04:32:30;67.63;;;28.77;;
80425;SDS011;69766;51.476;5.704;2023-11-18T04:34:59;73.78;;;30.88;;
80425;SDS011;69766;51.476;5.704;2023-11-18T04:37:31;74.57;;;30.90;;
80425;SDS011;69766;51.476;5.704;2023-11-18T04:40:03;75.28;;;31.38;;
80425;SDS011;69766;51.476;5.704;2023-11-18T04:42:34;72.38;;;31.60;;
80425;SDS011;69766;51.476;5.704;2023-11-18T04:45:09;75.85;;;31.52;;
80425;SDS011;69766;51.476;5.704;2023-11-18T04:47:36;70.65;;;31.05;;
80425;SDS011;69766;51.476;5.704;2023-11-18T04:50:02;64.80;;;29.02;;
80425;SDS011;69766;51.476;5.704;2023-11-18T04:52:29;77.25;;;31.33;;
80425;SDS011;69766;51.476;5.704;2023-11-18T04:55:00;66.25;;;29.52;;
80425;SDS011;69766;51.476;5.704;2023-11-18T04:57:26;76.28;;;31.90;;
80425;SDS011;69766;51.476;5.704;2023-11-18T04:59:52;70.80;;;30.77;;
80425;SDS011;69766;51.476;5.704;2023-11-18T05:02:17;70.63;;;32.28;;
80425;SDS011;69766;51.476;5.704;2023-11-18T05:04:44;69.68;;;30.85;;
80425;SDS011;69766;51.476;5.704;2023-11-18T05:07:09;71.90;;;30.90;;
80425;SDS011;69766;51.476;5.704;2023-11-18T05:09:35;67.85;;;32.33;;
80425;SDS011;69766;51.476;5.704;2023-11-18T05:12:02;72.15;;;30.95;;
80425;SDS011;69766;51.476;5.704;2023-11-18T05:35:08;63.67;;;29.67;;
80425;SDS011;69766;51.476;5.704;2023-11-18T05:46:48;52.58;;;27.13;;
80425;SDS011;69766;51.476;5.704;2023-11-18T05:49:16;52.22;;;27.05;;
80425;SDS011;69766;51.476;5.704;2023-11-18T05:51:43;56.35;;;28.25;;
80425;SDS011;69766;51.476;5.704;2023-11-18T05:54:10;53.38;;;27.80;;
80425;SDS011;69766;51.476;5.704;2023-11-18T05:56:36;53.85;;;28.10;;
80425;SDS011;69766;51.476;5.704;2023-11-18T05:59:02;56.72;;;27.00;;
80425;SDS011;69766;51.476;5.704;2023-11-18T06:01:28;53.90;;;27.42;;
80425;SDS011;69766;51.476;5.704;2023-11-18T06:03:55;58.08;;;26.83;;
80425;SDS011;69766;51.476;5.704;2023-11-18T06:06:22;61.08;;;26.55;;
80425;SDS011;69766;51.476;5.704;2023-11-18T06:08:50;56.30;;;26.63;;
80425;SDS011;69766;51.476;5.704;2023-11-18T06:11:45;56.35;;;25.73;;
80425;SDS011;69766;51.476;5.704;2023-11-18T06:21:01;56.17;;;25.73;;
80425;SDS011;69766;51.476;5.704;2023-11-18T06:23:28;52.47;;;25.48;;
80425;SDS011;69766;51.476;5.704;2023-11-18T06:26:01;49.95;;;25.00;;
80425;SDS011;69766;51.476;5.704;2023-11-18T06:28:27;50.20;;;24.70;;
80425;SDS011;69766;51.476;5.704;2023-11-18T06:30:59;45.30;;;22.33;;
80425;SDS011;69766;51.476;5.704;2023-11-18T06:33:25;43.47;;;23.10;;
80425;SDS011;69766;51.476;5.704;2023-11-18T06:35:53;45.67;;;23.75;;
80425;SDS011;69766;51.476;5.704;2023-11-18T06:38:21;48.67;;;21.55;;
80425;SDS011;69766;51.476;5.704;2023-11-18T06:40:47;53.50;;;22.42;;
80425;SDS011;69766;51.476;5.704;2023-11-18T06:43:18;46.33;;;22.23;;
80425;SDS011;69766;51.476;5.704;2023-11-18T06:46:04;45.28;;;22.20;;
80425;SDS011;69766;51.476;5.704;2023-11-18T06:48:34;40.75;;;21.48;;
80425;SDS011;69766;51.476;5.704;2023-11-18T06:51:00;42.40;;;18.95;;
80425;SDS011;69766;51.476;5.704;2023-11-18T06:53:27;38.92;;;20.02;;
80425;SDS011;69766;51.476;5.704;2023-11-18T06:55:53;44.35;;;18.48;;
80425;SDS011;69766;51.476;5.704;2023-11-18T06:58:19;40.70;;;18.85;;
80425;SDS011;69766;51.476;5.704;2023-11-18T07:00:45;45.40;;;19.35;;
80425;SDS011;69766;51.476;5.704;2023-11-18T07:03:13;41.72;;;17.77;;
80425;SDS011;69766;51.476;5.704;2023-11-18T07:05:39;39.88;;;17.73;;
80425;SDS011;69766;51.476;5.704;2023-11-18T07:08:05;38.92;;;18.10;;
80425;SDS011;69766;51.476;5.704;2023-11-18T07:10:33;37.72;;;17.42;;
80425;SDS011;69766;51.476;5.704;2023-11-18T07:13:07;36.90;;;18.08;;
80425;SDS011;69766;51.476;5.704;2023-11-18T07:15:34;32.95;;;16.75;;
80425;SDS011;69766;51.476;5.704;2023-11-18T07:18:01;37.05;;;17.52;;
80425;SDS011;69766;51.476;5.704;2023-11-18T07:20:29;37.17;;;16.23;;
80425;SDS011;69766;51.476;5.704;2023-11-18T07:23:01;36.70;;;15.85;;
80425;SDS011;69766;51.476;5.704;2023-11-18T07:25:37;35.53;;;17.83;;
80425;SDS011;69766;51.476;5.704;2023-11-18T07:28:08;42.30;;;17.40;;
80425;SDS011;69766;51.476;5.704;2023-11-18T07:30:34;38.50;;;17.13;;
80425;SDS011;69766;51.476;5.704;2023-11-18T07:33:05;35.00;;;15.38;;
80425;SDS011;69766;51.476;5.704;2023-11-18T07:35:33;35.03;;;16.35;;
80425;SDS011;69766;51.476;5.704;2023-11-18T07:38:01;36.65;;;15.98;;
80425;SDS011;69766;51.476;5.704;2023-11-18T07:40:27;39.00;;;16.27;;
80425;SDS011;69766;51.476;5.704;2023-11-18T07:42:54;36.53;;;16.35;;
80425;SDS011;69766;51.476;5.704;2023-11-18T07:45:26;34.63;;;15.38;;
80425;SDS011;69766;51.476;5.704;2023-11-18T07:47:54;40.10;;;16.52;;
80425;SDS011;69766;51.476;5.704;2023-11-18T07:50:20;41.95;;;17.75;;
80425;SDS011;69766;51.476;5.704;2023-11-18T07:52:49;35.83;;;15.30;;
80425;SDS011;69766;51.476;5.704;2023-11-18T07:55:15;38.20;;;16.50;;
80425;SDS011;69766;51.476;5.704;2023-11-18T07:57:41;39.65;;;16.48;;
80425;SDS011;69766;51.476;5.704;2023-11-18T08:00:08;36.60;;;16.98;;
80425;SDS011;69766;51.476;5.704;2023-11-18T08:02:35;33.85;;;16.33;;
80425;SDS011;69766;51.476;5.704;2023-11-18T08:05:02;35.90;;;16.67;;
80425;SDS011;69766;51.476;5.704;2023-11-18T08:07:28;30.63;;;15.15;;
80425;SDS011;69766;51.476;5.704;2023-11-18T08:09:54;32.15;;;15.80;;
80425;SDS011;69766;51.476;5.704;2023-11-18T08:12:20;37.80;;;16.23;;
80425;SDS011;69766;51.476;5.704;2023-11-18T08:14:46;35.17;;;16.80;;
80425;SDS011;69766;51.476;5.704;2023-11-18T08:17:17;33.67;;;15.98;;
80425;SDS011;69766;51.476;5.704;2023-11-18T08:19:50;35.40;;;15.20;;
80425;SDS011;69766;51.476;5.704;2023-11-18T08:22:17;29.58;;;14.55;;
80425;SDS011;69766;51.476;5.704;2023-11-18T08:24:44;38.00;;;16.45;;
80425;SDS011;69766;51.476;5.704;2023-11-18T08:27:11;32.67;;;14.43;;
80425;SDS011;69766;51.476;5.704;2023-11-18T08:29:37;38.45;;;15.30;;
80425;SDS011;69766;51.476;5.704;2023-11-18T08:32:04;34.80;;;13.65;;
80425;SDS011;69766;51.476;5.704;2023-11-18T08:34:31;32.83;;;13.98;;
80425;SDS011;69766;51.476;5.704;2023-11-18T08:37:00;36.25;;;14.27;;
80425;SDS011;69766;51.476;5.704;2023-11-18T08:39:28;27.83;;;13.00;;
80425;SDS011;69766;51.476;5.704;2023-11-18T08:41:54;30.38;;;13.63;;
80425;SDS011;69766;51.476;5.704;2023-11-18T08:44:21;29.52;;;12.82;;
80425;SDS011;69766;51.476;5.704;2023-11-18T08:46:53;25.10;;;11.93;;
80425;SDS011;69766;51.476;5.704;2023-11-18T08:49:22;23.90;;;12.00;;
80425;SDS011;69766;51.476;5.704;2023-11-18T08:51:48;29.75;;;13.15;;
80425;SDS011;69766;51.476;5.704;2023-11-18T08:54:21;30.65;;;11.85;;
80425;SDS011;69766;51.476;5.704;2023-11-18T08:59:50;29.27;;;11.13;;
80425;SDS011;69766;51.476;5.704;2023-11-18T09:02:19;27.27;;;11.43;;
80425;SDS011;69766;51.476;5.704;2023-11-18T09:04:49;25.00;;;11.43;;
80425;SDS011;69766;51.476;5.704;2023-11-18T09:07:15;33.05;;;11.60;;
80425;SDS011;69766;51.476;5.704;2023-11-18T09:09:44;21.58;;;9.25;;
80425;SDS011;69766;51.476;5.704;2023-11-18T09:12:11;18.90;;;9.32;;
80425;SDS011;69766;51.476;5.704;2023-11-18T09:14:39;20.52;;;9.48;;
80425;SDS011;69766;51.476;5.704;2023-11-18T09:17:07;26.58;;;10.30;;
80425;SDS011;69766;51.476;5.704;2023-11-18T09:19:32;22.60;;;11.02;;
80425;SDS011;69766;51.476;5.704;2023-11-18T09:21:58;23.60;;;11.43;;
80425;SDS011;69766;51.476;5.704;2023-11-18T09:24:24;21.48;;;9.60;;
80425;SDS011;69766;51.476;5.704;2023-11-18T09:26:50;18.58;;;9.80;;
80425;SDS011;69766;51.476;5.704;2023-11-18T09:29:16;26.60;;;10.18;;
80425;SDS011;69766;51.476;5.704;2023-11-18T09:31:51;25.20;;;9.73;;
80425;SDS011;69766;51.476;5.704;2023-11-18T09:34:20;20.33;;;9.25;;
80425;SDS011;69766;51.476;5.704;2023-11-18T09:36:53;21.40;;;9.98;;
80425;SDS011;69766;51.476;5.704;2023-11-18T09:39:19;19.75;;;8.10;;
80425;SDS011;69766;51.476;5.704;2023-11-18T09:42:02;17.67;;;8.52;;
80425;SDS011;69766;51.476;5.704;2023-11-18T09:44:29;19.92;;;8.75;;
80425;SDS011;69766;51.476;5.704;2023-11-18T09:46:58;21.10;;;8.80;;
80425;SDS011;69766;51.476;5.704;2023-11-18T09:49:31;28.80;;;8.90;;
80425;SDS011;69766;51.476;5.704;2023-11-18T09:52:04;21.30;;;8.38;;
80425;SDS011;69766;51.476;5.704;2023-11-18T09:54:44;19.15;;;8.77;;
80425;SDS011;69766;51.476;5.704;2023-11-18T10:00:22;21.27;;;9.23;;
80425;SDS011;69766;51.476;5.704;2023-11-18T10:06:05;23.13;;;9.10;;
80425;SDS011;69766;51.476;5.704;2023-11-18T10:11:53;16.48;;;8.20;;
80425;SDS011;69766;51.476;5.704;2023-11-18T10:14:30;20.55;;;8.05;;
80425;SDS011;69766;51.476;5.704;2023-11-18T10:18:00;20.13;;;8.20;;
80425;SDS011;69766;51.476;5.704;2023-11-18T10:19:55;19.98;;;8.50;;
80425;SDS011;69766;51.476;5.704;2023-11-18T10:22:23;21.85;;;8.70;;
80425;SDS011;69766;51.476;5.704;2023-11-18T10:24:52;18.77;;;8.50;;
80425;SDS011;69766;51.476;5.704;2023-11-18T10:27:22;15.68;;;8.15;;
80425;SDS011;69766;51.476;5.704;2023-11-18T10:29:58;21.08;;;7.75;;
80425;SDS011;69766;51.476;5.704;2023-11-18T10:32:27;23.40;;;8.75;;
80425;SDS011;69766;51.476;5.704;2023-11-18T10:34:56;20.63;;;8.45;;
80425;SDS011;69766;51.476;5.704;2023-11-18T10:37:26;21.17;;;8.15;;
80425;SDS011;69766;51.476;5.704;2023-11-18T10:39:55;20.63;;;8.60;;
80425;SDS011;69766;51.476;5.704;2023-11-18T10:42:34;20.25;;;9.35;;
80425;SDS011;69766;51.476;5.704;2023-11-18T10:45:05;16.63;;;7.57;;
80425;SDS011;69766;51.476;5.704;2023-11-18T10:47:34;17.83;;;7.50;;
80425;SDS011;69766;51.476;5.704;2023-11-18T10:50:00;14.88;;;6.97;;
80425;SDS011;69766;51.476;5.704;2023-11-18T10:52:27;17.15;;;9.68;;
80425;SDS011;69766;51.476;5.704;2023-11-18T10:55:03;14.75;;;7.38;;
80425;SDS011;69766;51.476;5.704;2023-11-18T10:57:36;19.95;;;7.55;;
80425;SDS011;69766;51.476;5.704;2023-11-18T11:00:07;13.25;;;6.97;;
80425;SDS011;69766;51.476;5.704;2023-11-18T11:02:39;18.27;;;7.55;;
80425;SDS011;69766;51.476;5.704;2023-11-18T11:05:12;17.25;;;7.93;;
80425;SDS011;69766;51.476;5.704;2023-11-18T11:08:01;14.77;;;7.30;;
80425;SDS011;69766;51.476;5.704;2023-11-18T11:10:30;20.57;;;7.53;;
80425;SDS011;69766;51.476;5.704;2023-11-18T11:18:35;17.60;;;7.97;;
80425;SDS011;69766;51.476;5.704;2023-11-18T11:21:15;13.05;;;6.78;;
80425;SDS011;69766;51.476;5.704;2023-11-18T11:24:05;13.82;;;6.28;;
80425;SDS011;69766;51.476;5.704;2023-11-18T11:26:41;17.38;;;6.80;;
80425;SDS011;69766;51.476;5.704;2023-11-18T11:29:32;15.48;;;6.78;;
80425;SDS011;69766;51.476;5.704;2023-11-18T11:32:18;17.67;;;6.72;;
80425;SDS011;69766;51.476;5.704;2023-11-18T11:35:00;16.38;;;7.32;;
80425;SDS011;69766;51.476;5.704;2023-11-18T11:37:32;20.65;;;6.80;;
80425;SDS011;69766;51.476;5.704;2023-11-18T11:40:02;12.93;;;6.35;;
80425;SDS011;69766;51.476;5.704;2023-11-18T11:42:34;15.30;;;6.32;;
80425;SDS011;69766;51.476;5.704;2023-11-18T11:45:01;18.48;;;6.82;;
80425;SDS011;69766;51.476;5.704;2023-11-18T11:47:28;18.08;;;7.10;;
80425;SDS011;69766;51.476;5.704;2023-11-18T11:52:51;15.95;;;6.93;;
80425;SDS011;69766;51.476;5.704;2023-11-18T11:55:29;14.90;;;6.97;;
80425;SDS011;69766;51.476;5.704;2023-11-18T11:58:02;16.65;;;7.18;;
80425;SDS011;69766;51.476;5.704;2023-11-18T12:00:28;18.98;;;6.30;;
80425;SDS011;69766;51.476;5.704;2023-11-18T12:03:00;14.27;;;6.63;;
80425;SDS011;69766;51.476;5.704;2023-11-18T12:05:29;14.05;;;6.30;;
80425;SDS011;69766;51.476;5.704;2023-11-18T12:07:58;18.38;;;6.18;;
80425;SDS011;69766;51.476;5.704;2023-11-18T12:10:27;17.13;;;7.22;;
80425;SDS011;69766;51.476;5.704;2023-11-18T12:13:08;16.33;;;5.50;;
80425;SDS011;69766;51.476;5.704;2023-11-18T12:15:47;17.55;;;5.43;;
80425;SDS011;69766;51.476;5.704;2023-11-18T12:18:26;15.93;;;6.18;;
80425;SDS011;69766;51.476;5.704;2023-11-18T12:20:52;17.42;;;5.75;;
80425;SDS011;69766;51.476;5.704;2023-11-18T12:23:21;17.95;;;6.68;;
80425;SDS011;69766;51.476;5.704;2023-11-18T12:25:51;14.43;;;6.13;;
80425;SDS011;69766;51.476;5.704;2023-11-18T12:28:25;19.17;;;7.38;;
80425;SDS011;69766;51.476;5.704;2023-11-18T12:31:00;15.07;;;6.43;;
80425;SDS011;69766;51.476;5.704;2023-11-18T12:37:17;16.90;;;5.88;;
80425;SDS011;69766;51.476;5.704;2023-11-18T12:40:13;14.05;;;6.13;;
80425;SDS011;69766;51.476;5.704;2023-11-18T12:42:58;10.85;;;5.28;;
80425;SDS011;69766;51.476;5.704;2023-11-18T12:48:06;15.27;;;5.07;;
80425;SDS011;69766;51.476;5.704;2023-11-18T12:50:40;11.43;;;5.00;;
80425;SDS011;69766;51.476;5.704;2023-11-18T12:53:09;11.63;;;4.93;;
80425;SDS011;69766;51.476;5.704;2023-11-18T12:55:35;9.82;;;4.53;;
80425;SDS011;69766;51.476;5.704;2023-11-18T12:58:04;11.50;;;4.22;;
80425;SDS011;69766;51.476;5.704;2023-11-18T13:00:33;11.63;;;4.72;;
80425;SDS011;69766;51.476;5.704;2023-11-18T13:03:01;12.32;;;4.65;;
80425;SDS011;69766;51.476;5.704;2023-11-18T13:05:38;15.05;;;4.03;;
80425;SDS011;69766;51.476;5.704;2023-11-18T13:08:04;12.55;;;4.70;;
80425;SDS011;69766;51.476;5.704;2023-11-18T13:10:30;14.23;;;4.30;;
80425;SDS011;69766;51.476;5.704;2023-11-18T13:12:59;8.80;;;3.70;;
80425;SDS011;69766;51.476;5.704;2023-11-18T13:15:25;7.63;;;4.20;;
80425;SDS011;69766;51.476;5.704;2023-11-18T13:17:59;11.70;;;3.80;;
80425;SDS011;69766;51.476;5.704;2023-11-18T13:20:31;8.50;;;3.60;;
80425;SDS011;69766;51.476;5.704;2023-11-18T13:23:01;6.30;;;3.47;;
80425;SDS011;69766;51.476;5.704;2023-11-18T13:25:33;9.15;;;3.97;;
80425;SDS011;69766;51.476;5.704;2023-11-18T13:28:01;10.15;;;4.38;;
80425;SDS011;69766;51.476;5.704;2023-11-18T13:30:39;8.23;;;3.75;;
80425;SDS011;69766;51.476;5.704;2023-11-18T13:33:06;10.63;;;3.58;;
80425;SDS011;69766;51.476;5.704;2023-11-18T13:35:33;9.80;;;3.55;;
80425;SDS011;69766;51.476;5.704;2023-11-18T13:38:14;9.88;;;3.63;;
80425;SDS011;69766;51.476;5.704;2023-11-18T13:40:46;7.55;;;3.78;;
80425;SDS011;69766;51.476;5.704;2023-11-18T13:43:17;8.25;;;4.10;;
80425;SDS011;69766;51.476;5.704;2023-11-18T13:45:50;9.70;;;3.50;;
80425;SDS011;69766;51.476;5.704;2023-11-18T13:48:18;9.73;;;3.58;;
80425;SDS011;69766;51.476;5.704;2023-11-18T13:50:44;9.20;;;3.72;;
80425;SDS011;69766;51.476;5.704;2023-11-18T13:53:10;7.95;;;3.88;;
80425;SDS011;69766;51.476;5.704;2023-11-18T13:55:36;8.38;;;3.30;;
80425;SDS011;69766;51.476;5.704;2023-11-18T13:58:04;9.25;;;3.88;;
80425;SDS011;69766;51.476;5.704;2023-11-18T14:00:30;8.40;;;3.85;;
80425;SDS011;69766;51.476;5.704;2023-11-18T14:03:01;10.80;;;4.75;;
80425;SDS011;69766;51.476;5.704;2023-11-18T14:05:29;7.55;;;3.97;;
80425;SDS011;69766;51.476;5.704;2023-11-18T14:07:59;8.75;;;3.90;;
80425;SDS011;69766;51.476;5.704;2023-11-18T14:10:25;7.72;;;4.30;;
80425;SDS011;69766;51.476;5.704;2023-11-18T14:13:04;7.28;;;3.80;;
80425;SDS011;69766;51.476;5.704;2023-11-18T14:15:40;7.70;;;3.90;;
80425;SDS011;69766;51.476;5.704;2023-11-18T14:18:09;7.20;;;4.18;;
80425;SDS011;69766;51.476;5.704;2023-11-18T14:20:35;10.13;;;4.32;;
80425;SDS011;69766;51.476;5.704;2023-11-18T14:23:02;8.48;;;4.00;;
80425;SDS011;69766;51.476;5.704;2023-11-18T14:25:31;6.95;;;3.83;;
80425;SDS011;69766;51.476;5.704;2023-11-18T14:28:01;11.25;;;4.72;;
80425;SDS011;69766;51.476;5.704;2023-11-18T14:30:32;7.35;;;3.97;;
80425;SDS011;69766;51.476;5.704;2023-11-18T14:32:59;8.25;;;4.10;;
80425;SDS011;69766;51.476;5.704;2023-11-18T14:35:25;8.50;;;4.47;;
80425;SDS011;69766;51.476;5.704;2023-11-18T14:37:54;9.80;;;4.32;;
80425;SDS011;69766;51.476;5.704;2023-11-18T14:40:21;11.45;;;4.93;;
80425;SDS011;69766;51.476;5.704;2023-11-18T14:42:49;8.48;;;4.38;;
80425;SDS011;69766;51.476;5.704;2023-11-18T14:48:23;8.98;;;4.45;;
80425;SDS011;69766;51.476;5.704;2023-11-18T14:50:51;7.47;;;4.03;;
80425;SDS011;69766;51.476;5.704;2023-11-18T14:53:39;7.10;;;3.67;;
80425;SDS011;69766;51.476;5.704;2023-11-18T14:56:09;6.55;;;4.53;;
80425;SDS011;69766;51.476;5.704;2023-11-18T14:58:35;7.15;;;3.90;;
80425;SDS011;69766;51.476;5.704;2023-11-18T15:01:01;7.13;;;4.30;;
80425;SDS011;69766;51.476;5.704;2023-11-18T15:03:27;6.95;;;4.22;;
80425;SDS011;69766;51.476;5.704;2023-11-18T15:05:54;6.78;;;4.43;;
80425;SDS011;69766;51.476;5.704;2023-11-18T15:08:20;6.70;;;4.15;;
80425;SDS011;69766;51.476;5.704;2023-11-18T15:10:49;6.80;;;4.00;;
80425;SDS011;69766;51.476;5.704;2023-11-18T15:13:18;8.02;;;4.35;;
80425;SDS011;69766;51.476;5.704;2023-11-18T15:16:00;6.53;;;4.25;;
80425;SDS011;69766;51.476;5.704;2023-11-18T15:18:35;6.75;;;4.70;;
80425;SDS011;69766;51.476;5.704;2023-11-18T15:21:01;7.90;;;4.40;;
80425;SDS011;69766;51.476;5.704;2023-11-18T15:23:40;6.72;;;4.18;;
80425;SDS011;69766;51.476;5.704;2023-11-18T15:26:18;7.43;;;4.40;;
80425;SDS011;69766;51.476;5.704;2023-11-18T15:28:44;9.45;;;4.70;;
80425;SDS011;69766;51.476;5.704;2023-11-18T15:31:10;6.50;;;4.47;;
80425;SDS011;69766;51.476;5.704;2023-11-18T15:33:37;6.82;;;4.05;;
80425;SDS011;69766;51.476;5.704;2023-11-18T15:36:04;7.38;;;4.18;;
80425;SDS011;69766;51.476;5.704;2023-11-18T15:38:36;7.47;;;4.80;;
80425;SDS011;69766;51.476;5.704;2023-11-18T15:41:01;5.90;;;4.13;;
80425;SDS011;69766;51.476;5.704;2023-11-18T15:43:27;7.25;;;4.47;;
80425;SDS011;69766;51.476;5.704;2023-11-18T15:45:53;9.27;;;4.70;;
80425;SDS011;69766;51.476;5.704;2023-11-18T15:48:21;6.82;;;4.45;;
80425;SDS011;69766;51.476;5.704;2023-11-18T15:50:47;7.25;;;4.38;;
80425;SDS011;69766;51.476;5.704;2023-11-18T15:53:12;9.52;;;4.72;;
80425;SDS011;69766;51.476;5.704;2023-11-18T15:55:38;6.65;;;4.90;;